Airport ICAO


07:27 UTC

9°C

Clear skies


An affordable passengers' Moving Map for your aircraft. Made for the iPad and the iPhone
More information here

LFPN Le Noble


Toussous FRANCE   VFR CAVOK


METAR LFPN 200700Z AUTO 00000KT CAVOK 09/08 Q1023 TEMPO 0400 FG VV/// 0h27min

TAF LFPN 200500Z 2006/2015 VRB02KT 9999 SCT030 PROB30 TEMPO 2006/2008 0400 FG VV/// 2h27min





NOTAMS

OPEN